sensor_id;sensor_type;location;lat;lon;timestamp;temperature;humidity
4518;DHT22;2271;49.464;11.070;2022-07-23T00:00:08;25.20;99.90
4518;DHT22;2271;49.464;11.070;2022-07-23T00:02:34;25.20;99.90
4518;DHT22;2271;49.464;11.070;2022-07-23T00:05:00;25.20;99.90
4518;DHT22;2271;49.464;11.070;2022-07-23T00:07:25;25.00;99.90
4518;DHT22;2271;49.464;11.070;2022-07-23T00:09:51;25.00;99.90
4518;DHT22;2271;49.464;11.070;2022-07-23T00:12:17;24.90;99.90
4518;DHT22;2271;49.464;11.070;2022-07-23T00:14:42;24.90;99.90
4518;DHT22;2271;49.464;11.070;2022-07-23T00:17:08;24.80;99.90
4518;DHT22;2271;49.464;11.070;2022-07-23T00:19:34;24.70;99.90
4518;DHT22;2271;49.464;11.070;2022-07-23T00:21:59;24.50;99.90
4518;DHT22;2271;49.464;11.070;2022-07-23T00:24:25;24.40;99.90
4518;DHT22;2271;49.464;11.070;2022-07-23T00:26:51;24.40;99.90
4518;DHT22;2271;49.464;11.070;2022-07-23T00:29:16;24.40;99.90
4518;DHT22;2271;49.464;11.070;2022-07-23T00:31:42;24.40;99.90
4518;DHT22;2271;49.464;11.070;2022-07-23T00:34:08;24.40;99.90
4518;DHT22;2271;49.464;11.070;2022-07-23T00:36:33;24.40;99.90
4518;DHT22;2271;49.464;11.070;2022-07-23T00:38:59;24.30;99.90
4518;DHT22;2271;49.464;11.070;2022-07-23T00:41:24;24.30;99.90
4518;DHT22;2271;49.464;11.070;2022-07-23T00:43:50;24.40;99.90
4518;DHT22;2271;49.464;11.070;2022-07-23T00:46:22;24.40;99.90
4518;DHT22;2271;49.464;11.070;2022-07-23T00:48:48;24.40;99.90
4518;DHT22;2271;49.464;11.070;2022-07-23T00:51:15;24.50;99.90
4518;DHT22;2271;49.464;11.070;2022-07-23T00:53:42;24.50;99.90
4518;DHT22;2271;49.464;11.070;2022-07-23T00:56:08;24.60;99.90
4518;DHT22;2271;49.464;11.070;2022-07-23T00:58:35;24.60;99.90
4518;DHT22;2271;49.464;11.070;2022-07-23T01:01:01;24.60;99.90
4518;DHT22;2271;49.464;11.070;2022-07-23T01:03:26;24.70;99.90
4518;DHT22;2271;49.464;11.070;2022-07-23T01:05:53;24.60;99.90
4518;DHT22;2271;49.464;11.070;2022-07-23T01:08:19;24.60;99.90
4518;DHT22;2271;49.464;11.070;2022-07-23T01:10:46;24.60;99.90
4518;DHT22;2271;49.464;11.070;2022-07-23T01:13:12;24.60;99.90
4518;DHT22;2271;49.464;11.070;2022-07-23T01:15:38;24.60;99.90
4518;DHT22;2271;49.464;11.070;2022-07-23T01:18:05;24.60;99.90
4518;DHT22;2271;49.464;11.070;2022-07-23T01:20:31;24.60;99.90
4518;DHT22;2271;49.464;11.070;2022-07-23T01:22:57;24.60;99.90
4518;DHT22;2271;49.464;11.070;2022-07-23T01:25:23;24.60;99.90
4518;DHT22;2271;49.464;11.070;2022-07-23T01:27:50;24.60;99.90
4518;DHT22;2271;49.464;11.070;2022-07-23T01:30:17;24.50;99.90
4518;DHT22;2271;49.464;11.070;2022-07-23T01:32:42;24.50;99.90
4518;DHT22;2271;49.464;11.070;2022-07-23T01:35:09;24.50;99.90
4518;DHT22;2271;49.464;11.070;2022-07-23T01:37:35;24.50;99.90
4518;DHT22;2271;49.464;11.070;2022-07-23T01:40:01;24.50;99.90
4518;DHT22;2271;49.464;11.070;2022-07-23T01:42:26;24.50;99.90
4518;DHT22;2271;49.464;11.070;2022-07-23T01:44:52;24.40;99.90
4518;DHT22;2271;49.464;11.070;2022-07-23T01:47:18;24.40;99.90
4518;DHT22;2271;49.464;11.070;2022-07-23T01:49:43;24.30;99.90
4518;DHT22;2271;49.464;11.070;2022-07-23T01:52:09;24.40;99.90
4518;DHT22;2271;49.464;11.070;2022-07-23T01:54:37;24.40;99.90
4518;DHT22;2271;49.464;11.070;2022-07-23T01:57:04;24.40;99.90
4518;DHT22;2271;49.464;11.070;2022-07-23T01:59:30;24.40;99.90
4518;DHT22;2271;49.464;11.070;2022-07-23T02:01:55;24.40;99.90
4518;DHT22;2271;49.464;11.070;2022-07-23T02:04:22;24.40;99.90
4518;DHT22;2271;49.464;11.070;2022-07-23T02:06:48;24.30;99.90
4518;DHT22;2271;49.464;11.070;2022-07-23T02:09:14;24.30;99.90
4518;DHT22;2271;49.464;11.070;2022-07-23T02:11:40;24.30;99.90
4518;DHT22;2271;49.464;11.070;2022-07-23T02:14:05;24.30;99.90
4518;DHT22;2271;49.464;11.070;2022-07-23T02:16:31;24.30;99.90
4518;DHT22;2271;49.464;11.070;2022-07-23T02:18:57;24.20;99.90
4518;DHT22;2271;49.464;11.070;2022-07-23T02:21:23;24.20;99.90
4518;DHT22;2271;49.464;11.070;2022-07-23T02:23:48;24.20;99.90
4518;DHT22;2271;49.464;11.070;2022-07-23T02:26:14;24.10;99.90
4518;DHT22;2271;49.464;11.070;2022-07-23T02:28:40;24.00;99.90
4518;DHT22;2271;49.464;11.070;2022-07-23T02:31:06;24.00;99.90
4518;DHT22;2271;49.464;11.070;2022-07-23T02:33:32;24.00;99.90
4518;DHT22;2271;49.464;11.070;2022-07-23T02:35:58;24.00;99.90
4518;DHT22;2271;49.464;11.070;2022-07-23T02:38:24;24.10;99.90
4518;DHT22;2271;49.464;11.070;2022-07-23T02:40:50;24.00;99.90
4518;DHT22;2271;49.464;11.070;2022-07-23T02:43:15;24.00;99.90
4518;DHT22;2271;49.464;11.070;2022-07-23T02:45:41;24.00;99.90
4518;DHT22;2271;49.464;11.070;2022-07-23T02:48:07;24.10;99.90
4518;DHT22;2271;49.464;11.070;2022-07-23T02:50:32;24.10;99.90
4518;DHT22;2271;49.464;11.070;2022-07-23T02:52:58;24.10;99.90
4518;DHT22;2271;49.464;11.070;2022-07-23T02:55:24;24.10;99.90
4518;DHT22;2271;49.464;11.070;2022-07-23T02:57:50;24.00;99.90
4518;DHT22;2271;49.464;11.070;2022-07-23T03:00:15;23.90;99.90
4518;DHT22;2271;49.464;11.070;2022-07-23T03:02:41;23.90;99.90
4518;DHT22;2271;49.464;11.070;2022-07-23T03:05:07;23.80;99.90
4518;DHT22;2271;49.464;11.070;2022-07-23T03:07:33;23.80;99.90
4518;DHT22;2271;49.464;11.070;2022-07-23T03:09:59;23.80;99.90
4518;DHT22;2271;49.464;11.070;2022-07-23T03:12:24;23.80;99.90
4518;DHT22;2271;49.464;11.070;2022-07-23T03:14:50;23.80;99.90
4518;DHT22;2271;49.464;11.070;2022-07-23T03:17:16;23.80;99.90
4518;DHT22;2271;49.464;11.070;2022-07-23T03:19:42;23.70;99.90
4518;DHT22;2271;49.464;11.070;2022-07-23T03:22:07;23.70;99.90
4518;DHT22;2271;49.464;11.070;2022-07-23T03:24:33;23.60;99.90
4518;DHT22;2271;49.464;11.070;2022-07-23T03:27:17;23.50;99.90
4518;DHT22;2271;49.464;11.070;2022-07-23T03:29:43;23.50;99.90
4518;DHT22;2271;49.464;11.070;2022-07-23T03:32:09;23.40;99.90
4518;DHT22;2271;49.464;11.070;2022-07-23T03:34:35;23.30;99.90
4518;DHT22;2271;49.464;11.070;2022-07-23T03:37:01;23.20;99.90
4518;DHT22;2271;49.464;11.070;2022-07-23T03:39:26;23.20;99.90
4518;DHT22;2271;49.464;11.070;2022-07-23T03:41:52;23.20;99.90
4518;DHT22;2271;49.464;11.070;2022-07-23T03:44:18;23.20;99.90
4518;DHT22;2271;49.464;11.070;2022-07-23T03:46:43;23.20;99.90
4518;DHT22;2271;49.464;11.070;2022-07-23T03:49:09;23.20;99.90
4518;DHT22;2271;49.464;11.070;2022-07-23T03:51:34;23.20;99.90
4518;DHT22;2271;49.464;11.070;2022-07-23T03:54:00;23.20;99.90
4518;DHT22;2271;49.464;11.070;2022-07-23T03:56:26;23.20;99.90
4518;DHT22;2271;49.464;11.070;2022-07-23T03:58:51;23.20;99.90
4518;DHT22;2271;49.464;11.070;2022-07-23T04:01:17;23.10;99.90
4518;DHT22;2271;49.464;11.070;2022-07-23T04:03:43;23.00;99.90
4518;DHT22;2271;49.464;11.070;2022-07-23T04:06:08;23.00;99.90
4518;DHT22;2271;49.464;11.070;2022-07-23T04:08:34;22.90;99.90
4518;DHT22;2271;49.464;11.070;2022-07-23T04:10:59;22.90;99.90
4518;DHT22;2271;49.464;11.070;2022-07-23T04:13:25;22.80;99.90
4518;DHT22;2271;49.464;11.070;2022-07-23T04:15:51;22.80;99.90
4518;DHT22;2271;49.464;11.070;2022-07-23T04:18:17;22.80;99.90
4518;DHT22;2271;49.464;11.070;2022-07-23T04:20:45;22.80;99.90
4518;DHT22;2271;49.464;11.070;2022-07-23T04:23:11;22.60;99.90
4518;DHT22;2271;49.464;11.070;2022-07-23T04:25:37;22.50;99.90
4518;DHT22;2271;49.464;11.070;2022-07-23T04:28:03;22.50;99.90
4518;DHT22;2271;49.464;11.070;2022-07-23T04:30:29;22.50;99.90
4518;DHT22;2271;49.464;11.070;2022-07-23T04:32:55;22.50;99.90
4518;DHT22;2271;49.464;11.070;2022-07-23T04:35:21;22.60;99.90
4518;DHT22;2271;49.464;11.070;2022-07-23T04:37:46;22.70;99.90
4518;DHT22;2271;49.464;11.070;2022-07-23T04:40:13;22.80;99.90
4518;DHT22;2271;49.464;11.070;2022-07-23T04:42:39;22.90;99.90
4518;DHT22;2271;49.464;11.070;2022-07-23T04:45:05;23.00;99.90
4518;DHT22;2271;49.464;11.070;2022-07-23T04:47:31;23.00;99.90
4518;DHT22;2271;49.464;11.070;2022-07-23T04:49:57;23.10;99.90
4518;DHT22;2271;49.464;11.070;2022-07-23T04:52:23;23.20;99.90
4518;DHT22;2271;49.464;11.070;2022-07-23T04:54:48;23.20;99.90
4518;DHT22;2271;49.464;11.070;2022-07-23T04:57:14;23.40;99.90
4518;DHT22;2271;49.464;11.070;2022-07-23T04:59:40;23.40;99.90
4518;DHT22;2271;49.464;11.070;2022-07-23T05:02:05;23.50;99.90
4518;DHT22;2271;49.464;11.070;2022-07-23T05:04:31;23.50;99.90
4518;DHT22;2271;49.464;11.070;2022-07-23T05:06:57;23.60;99.90
4518;DHT22;2271;49.464;11.070;2022-07-23T05:09:23;23.70;99.90
4518;DHT22;2271;49.464;11.070;2022-07-23T05:11:49;23.70;99.90
4518;DHT22;2271;49.464;11.070;2022-07-23T05:14:15;23.70;99.90
4518;DHT22;2271;49.464;11.070;2022-07-23T05:16:40;23.70;99.90
4518;DHT22;2271;49.464;11.070;2022-07-23T05:19:06;23.70;99.90
4518;DHT22;2271;49.464;11.070;2022-07-23T05:21:32;23.80;99.90
4518;DHT22;2271;49.464;11.070;2022-07-23T05:23:58;24.00;99.90
4518;DHT22;2271;49.464;11.070;2022-07-23T05:26:24;24.10;99.90
4518;DHT22;2271;49.464;11.070;2022-07-23T05:28:50;24.20;99.90
4518;DHT22;2271;49.464;11.070;2022-07-23T05:31:16;24.30;99.90
4518;DHT22;2271;49.464;11.070;2022-07-23T05:33:42;24.40;99.90
4518;DHT22;2271;49.464;11.070;2022-07-23T05:36:08;24.50;99.90
4518;DHT22;2271;49.464;11.070;2022-07-23T05:38:33;24.50;99.90
4518;DHT22;2271;49.464;11.070;2022-07-23T05:41:00;24.60;99.90
4518;DHT22;2271;49.464;11.070;2022-07-23T05:43:26;24.80;99.90
4518;DHT22;2271;49.464;11.070;2022-07-23T05:45:52;24.90;99.90
4518;DHT22;2271;49.464;11.070;2022-07-23T05:48:19;25.00;99.90
4518;DHT22;2271;49.464;11.070;2022-07-23T05:50:45;25.20;99.90
4518;DHT22;2271;49.464;11.070;2022-07-23T05:53:10;25.40;99.90
4518;DHT22;2271;49.464;11.070;2022-07-23T05:55:36;25.50;99.90
4518;DHT22;2271;49.464;11.070;2022-07-23T05:58:01;25.80;99.90
4518;DHT22;2271;49.464;11.070;2022-07-23T06:00:28;25.90;99.90
4518;DHT22;2271;49.464;11.070;2022-07-23T06:02:53;25.90;99.90
4518;DHT22;2271;49.464;11.070;2022-07-23T06:05:19;25.80;99.90
4518;DHT22;2271;49.464;11.070;2022-07-23T06:07:45;25.70;99.90
4518;DHT22;2271;49.464;11.070;2022-07-23T06:10:11;25.70;99.90
4518;DHT22;2271;49.464;11.070;2022-07-23T06:12:37;25.60;99.90
4518;DHT22;2271;49.464;11.070;2022-07-23T06:15:03;25.60;99.90
4518;DHT22;2271;49.464;11.070;2022-07-23T06:17:29;25.70;99.90
4518;DHT22;2271;49.464;11.070;2022-07-23T06:19:55;25.90;99.90
4518;DHT22;2271;49.464;11.070;2022-07-23T06:22:22;26.10;99.90
4518;DHT22;2271;49.464;11.070;2022-07-23T06:24:49;26.40;99.90
4518;DHT22;2271;49.464;11.070;2022-07-23T06:27:14;26.60;99.90
4518;DHT22;2271;49.464;11.070;2022-07-23T06:29:40;26.80;99.90
4518;DHT22;2271;49.464;11.070;2022-07-23T06:32:07;27.00;99.90
4518;DHT22;2271;49.464;11.070;2022-07-23T06:34:33;27.10;99.90
4518;DHT22;2271;49.464;11.070;2022-07-23T06:36:59;27.30;99.90
4518;DHT22;2271;49.464;11.070;2022-07-23T06:39:25;27.40;99.90
4518;DHT22;2271;49.464;11.070;2022-07-23T06:41:50;27.60;99.90
4518;DHT22;2271;49.464;11.070;2022-07-23T06:44:17;27.70;99.90
4518;DHT22;2271;49.464;11.070;2022-07-23T06:46:43;27.80;99.90
4518;DHT22;2271;49.464;11.070;2022-07-23T06:49:08;27.90;99.90
4518;DHT22;2271;49.464;11.070;2022-07-23T06:51:34;28.00;99.90
4518;DHT22;2271;49.464;11.070;2022-07-23T06:54:00;28.10;99.90
4518;DHT22;2271;49.464;11.070;2022-07-23T06:56:26;28.20;99.90
4518;DHT22;2271;49.464;11.070;2022-07-23T06:58:51;28.10;99.90
4518;DHT22;2271;49.464;11.070;2022-07-23T07:01:17;28.00;99.90
4518;DHT22;2271;49.464;11.070;2022-07-23T07:03:43;27.70;99.90
4518;DHT22;2271;49.464;11.070;2022-07-23T07:06:09;27.50;99.90
4518;DHT22;2271;49.464;11.070;2022-07-23T07:08:34;27.20;99.90
4518;DHT22;2271;49.464;11.070;2022-07-23T07:11:00;27.00;99.90
4518;DHT22;2271;49.464;11.070;2022-07-23T07:13:26;27.00;99.90
4518;DHT22;2271;49.464;11.070;2022-07-23T07:15:51;27.00;99.90
4518;DHT22;2271;49.464;11.070;2022-07-23T07:18:17;26.90;99.90
4518;DHT22;2271;49.464;11.070;2022-07-23T07:20:43;26.80;99.90
4518;DHT22;2271;49.464;11.070;2022-07-23T07:23:08;26.70;99.90
4518;DHT22;2271;49.464;11.070;2022-07-23T07:25:34;26.60;99.90
4518;DHT22;2271;49.464;11.070;2022-07-23T07:28:00;26.50;99.90
4518;DHT22;2271;49.464;11.070;2022-07-23T07:30:26;26.50;99.90
4518;DHT22;2271;49.464;11.070;2022-07-23T07:32:51;26.40;99.90
4518;DHT22;2271;49.464;11.070;2022-07-23T07:35:17;26.40;99.90
4518;DHT22;2271;49.464;11.070;2022-07-23T07:37:42;26.30;99.90
4518;DHT22;2271;49.464;11.070;2022-07-23T07:40:08;26.30;99.90
4518;DHT22;2271;49.464;11.070;2022-07-23T07:42:34;26.30;99.90
4518;DHT22;2271;49.464;11.070;2022-07-23T07:45:00;26.20;99.90
4518;DHT22;2271;49.464;11.070;2022-07-23T07:47:26;26.20;99.90
4518;DHT22;2271;49.464;11.070;2022-07-23T07:49:51;26.20;99.90
4518;DHT22;2271;49.464;11.070;2022-07-23T07:52:17;26.10;99.90
4518;DHT22;2271;49.464;11.070;2022-07-23T07:54:43;26.00;99.90
4518;DHT22;2271;49.464;11.070;2022-07-23T07:57:09;25.90;99.90
4518;DHT22;2271;49.464;11.070;2022-07-23T07:59:35;25.70;99.90
4518;DHT22;2271;49.464;11.070;2022-07-23T08:02:02;25.70;99.90
4518;DHT22;2271;49.464;11.070;2022-07-23T08:04:28;25.70;99.90
4518;DHT22;2271;49.464;11.070;2022-07-23T08:06:53;25.60;99.90
4518;DHT22;2271;49.464;11.070;2022-07-23T08:09:19;25.50;99.90
4518;DHT22;2271;49.464;11.070;2022-07-23T08:11:44;25.60;99.90
4518;DHT22;2271;49.464;11.070;2022-07-23T08:14:10;25.60;99.90
4518;DHT22;2271;49.464;11.070;2022-07-23T08:16:36;25.80;99.90
4518;DHT22;2271;49.464;11.070;2022-07-23T08:19:02;25.80;99.90
4518;DHT22;2271;49.464;11.070;2022-07-23T08:21:28;25.90;99.90
4518;DHT22;2271;49.464;11.070;2022-07-23T08:23:53;25.90;99.90
4518;DHT22;2271;49.464;11.070;2022-07-23T08:26:19;25.90;99.90
4518;DHT22;2271;49.464;11.070;2022-07-23T08:28:44;26.00;99.90
4518;DHT22;2271;49.464;11.070;2022-07-23T08:31:10;26.00;99.90
4518;DHT22;2271;49.464;11.070;2022-07-23T08:33:37;26.00;99.90
4518;DHT22;2271;49.464;11.070;2022-07-23T08:36:04;26.00;99.90
4518;DHT22;2271;49.464;11.070;2022-07-23T08:38:30;25.90;99.90
4518;DHT22;2271;49.464;11.070;2022-07-23T08:40:56;25.80;99.90
4518;DHT22;2271;49.464;11.070;2022-07-23T08:43:28;25.80;99.90
4518;DHT22;2271;49.464;11.070;2022-07-23T08:45:55;25.70;99.90
4518;DHT22;2271;49.464;11.070;2022-07-23T08:48:24;25.60;99.90
4518;DHT22;2271;49.464;11.070;2022-07-23T08:50:54;25.60;99.90
4518;DHT22;2271;49.464;11.070;2022-07-23T08:53:21;25.50;99.90
4518;DHT22;2271;49.464;11.070;2022-07-23T08:55:48;25.40;99.90
4518;DHT22;2271;49.464;11.070;2022-07-23T08:58:15;25.30;99.90
4518;DHT22;2271;49.464;11.070;2022-07-23T09:00:42;25.30;99.90
4518;DHT22;2271;49.464;11.070;2022-07-23T09:03:07;25.20;99.90
4518;DHT22;2271;49.464;11.070;2022-07-23T09:05:40;25.10;99.90
4518;DHT22;2271;49.464;11.070;2022-07-23T09:08:14;25.00;99.90
4518;DHT22;2271;49.464;11.070;2022-07-23T09:11:00;24.80;99.90
4518;DHT22;2271;49.464;11.070;2022-07-23T09:13:37;24.80;99.90
4518;DHT22;2271;49.464;11.070;2022-07-23T09:16:10;24.70;99.90
4518;DHT22;2271;49.464;11.070;2022-07-23T09:18:46;24.50;99.90
4518;DHT22;2271;49.464;11.070;2022-07-23T09:24:08;24.40;99.90
4518;DHT22;2271;49.464;11.070;2022-07-23T09:26:41;24.30;99.90
4518;DHT22;2271;49.464;11.070;2022-07-23T09:29:18;24.10;99.90
4518;DHT22;2271;49.464;11.070;2022-07-23T09:31:56;24.00;99.90
4518;DHT22;2271;49.464;11.070;2022-07-23T09:34:42;24.00;99.90
4518;DHT22;2271;49.464;11.070;2022-07-23T09:37:18;23.90;99.90
4518;DHT22;2271;49.464;11.070;2022-07-23T09:39:46;23.80;99.90
4518;DHT22;2271;49.464;11.070;2022-07-23T09:44:46;23.70;99.90
4518;DHT22;2271;49.464;11.070;2022-07-23T09:47:12;23.60;99.90
4518;DHT22;2271;49.464;11.070;2022-07-23T09:49:38;23.40;99.90
4518;DHT22;2271;49.464;11.070;2022-07-23T09:52:04;23.40;99.90
4518;DHT22;2271;49.464;11.070;2022-07-23T09:54:36;23.40;99.90
4518;DHT22;2271;49.464;11.070;2022-07-23T09:57:11;23.50;99.90
4518;DHT22;2271;49.464;11.070;2022-07-23T09:59:44;23.50;99.90
4518;DHT22;2271;49.464;11.070;2022-07-23T10:02:12;23.60;99.90
4518;DHT22;2271;49.464;11.070;2022-07-23T10:04:40;23.80;99.90
4518;DHT22;2271;49.464;11.070;2022-07-23T10:07:08;24.10;99.90
4518;DHT22;2271;49.464;11.070;2022-07-23T10:09:40;24.30;99.90
4518;DHT22;2271;49.464;11.070;2022-07-23T10:12:11;24.30;99.90
4518;DHT22;2271;49.464;11.070;2022-07-23T10:14:43;24.40;99.90
4518;DHT22;2271;49.464;11.070;2022-07-23T10:17:10;24.40;99.90
4518;DHT22;2271;49.464;11.070;2022-07-23T10:19:36;24.40;99.90
4518;DHT22;2271;49.464;11.070;2022-07-23T10:22:11;24.60;99.90
4518;DHT22;2271;49.464;11.070;2022-07-23T10:24:52;24.70;99.90
4518;DHT22;2271;49.464;11.070;2022-07-23T10:30:06;24.70;99.90
4518;DHT22;2271;49.464;11.070;2022-07-23T10:38:24;24.30;99.90
4518;DHT22;2271;49.464;11.070;2022-07-23T10:41:04;24.20;99.90
4518;DHT22;2271;49.464;11.070;2022-07-23T10:43:30;24.10;99.90
4518;DHT22;2271;49.464;11.070;2022-07-23T10:46:25;24.00;99.90
4518;DHT22;2271;49.464;11.070;2022-07-23T10:49:26;23.90;99.90
4518;DHT22;2271;49.464;11.070;2022-07-23T10:54:41;23.70;99.90
4518;DHT22;2271;49.464;11.070;2022-07-23T10:57:08;23.20;99.90
4518;DHT22;2271;49.464;11.070;2022-07-23T11:00:11;23.30;99.90
4518;DHT22;2271;49.464;11.070;2022-07-23T11:02:39;23.70;99.90
4518;DHT22;2271;49.464;11.070;2022-07-23T11:05:08;23.90;99.90
4518;DHT22;2271;49.464;11.070;2022-07-23T11:07:35;24.00;99.90
4518;DHT22;2271;49.464;11.070;2022-07-23T11:10:02;24.00;99.90
4518;DHT22;2271;49.464;11.070;2022-07-23T11:15:09;24.00;99.90
4518;DHT22;2271;49.464;11.070;2022-07-23T11:20:21;24.10;99.90
4518;DHT22;2271;49.464;11.070;2022-07-23T11:22:52;24.20;99.90
4518;DHT22;2271;49.464;11.070;2022-07-23T11:27:50;24.40;99.90
4518;DHT22;2271;49.464;11.070;2022-07-23T11:33:16;24.50;99.90
4518;DHT22;2271;49.464;11.070;2022-07-23T11:35:44;24.50;99.90
4518;DHT22;2271;49.464;11.070;2022-07-23T11:38:14;24.50;99.90
4518;DHT22;2271;49.464;11.070;2022-07-23T11:40:40;24.60;99.90
4518;DHT22;2271;49.464;11.070;2022-07-23T11:43:10;24.60;99.90
4518;DHT22;2271;49.464;11.070;2022-07-23T11:48:08;24.60;99.90
4518;DHT22;2271;49.464;11.070;2022-07-23T11:50:35;24.60;99.90
4518;DHT22;2271;49.464;11.070;2022-07-23T11:53:02;24.70;99.90
4518;DHT22;2271;49.464;11.070;2022-07-23T11:55:28;24.80;99.90
4518;DHT22;2271;49.464;11.070;2022-07-23T11:57:54;25.00;99.90
4518;DHT22;2271;49.464;11.070;2022-07-23T12:00:23;25.20;99.90
4518;DHT22;2271;49.464;11.070;2022-07-23T12:02:55;25.50;99.90
4518;DHT22;2271;49.464;11.070;2022-07-23T12:05:24;25.70;99.90
4518;DHT22;2271;49.464;11.070;2022-07-23T12:07:51;25.80;99.90
4518;DHT22;2271;49.464;11.070;2022-07-23T12:10:23;25.80;99.90
4518;DHT22;2271;49.464;11.070;2022-07-23T12:15:38;25.80;99.90
4518;DHT22;2271;49.464;11.070;2022-07-23T12:18:06;25.90;99.90
4518;DHT22;2271;49.464;11.070;2022-07-23T12:20:35;25.90;99.90
4518;DHT22;2271;49.464;11.070;2022-07-23T12:23:04;26.00;99.90
4518;DHT22;2271;49.464;11.070;2022-07-23T12:25:33;26.20;99.90
4518;DHT22;2271;49.464;11.070;2022-07-23T12:33:03;26.50;99.90
4518;DHT22;2271;49.464;11.070;2022-07-23T12:35:38;26.50;99.90
4518;DHT22;2271;49.464;11.070;2022-07-23T12:38:07;26.40;99.90
4518;DHT22;2271;49.464;11.070;2022-07-23T12:40:36;26.60;99.90
4518;DHT22;2271;49.464;11.070;2022-07-23T12:43:05;26.70;99.90
4518;DHT22;2271;49.464;11.070;2022-07-23T12:48:18;27.00;99.90
4518;DHT22;2271;49.464;11.070;2022-07-23T12:50:51;26.90;99.90
4518;DHT22;2271;49.464;11.070;2022-07-23T12:53:21;27.00;99.90
4518;DHT22;2271;49.464;11.070;2022-07-23T12:55:47;27.10;99.90
4518;DHT22;2271;49.464;11.070;2022-07-23T12:58:19;27.10;99.90
4518;DHT22;2271;49.464;11.070;2022-07-23T13:00:55;27.20;99.90
4518;DHT22;2271;49.464;11.070;2022-07-23T13:05:58;27.20;99.90
4518;DHT22;2271;49.464;11.070;2022-07-23T13:08:26;27.30;99.90
4518;DHT22;2271;49.464;11.070;2022-07-23T13:10:52;27.40;99.90
4518;DHT22;2271;49.464;11.070;2022-07-23T13:13:26;27.60;99.90
4518;DHT22;2271;49.464;11.070;2022-07-23T13:15:53;27.50;99.90
4518;DHT22;2271;49.464;11.070;2022-07-23T13:18:19;27.50;99.90
4518;DHT22;2271;49.464;11.070;2022-07-23T13:20:46;27.50;99.90
4518;DHT22;2271;49.464;11.070;2022-07-23T13:23:12;27.70;99.90
4518;DHT22;2271;49.464;11.070;2022-07-23T13:25:38;27.80;99.90
4518;DHT22;2271;49.464;11.070;2022-07-23T13:28:04;27.80;99.90
4518;DHT22;2271;49.464;11.070;2022-07-23T13:30:30;27.80;99.90
4518;DHT22;2271;49.464;11.070;2022-07-23T13:32:56;27.60;99.90
4518;DHT22;2271;49.464;11.070;2022-07-23T13:35:22;27.60;99.90
4518;DHT22;2271;49.464;11.070;2022-07-23T13:37:48;27.80;99.90
4518;DHT22;2271;49.464;11.070;2022-07-23T13:40:14;27.70;99.90
4518;DHT22;2271;49.464;11.070;2022-07-23T13:42:42;27.70;99.90
4518;DHT22;2271;49.464;11.070;2022-07-23T13:45:08;27.70;99.90
4518;DHT22;2271;49.464;11.070;2022-07-23T13:47:34;27.60;99.90
4518;DHT22;2271;49.464;11.070;2022-07-23T13:50:00;27.60;99.90
4518;DHT22;2271;49.464;11.070;2022-07-23T13:52:26;27.50;99.90
4518;DHT22;2271;49.464;11.070;2022-07-23T13:54:51;27.40;99.90
4518;DHT22;2271;49.464;11.070;2022-07-23T13:57:17;27.30;99.90
4518;DHT22;2271;49.464;11.070;2022-07-23T13:59:43;27.30;99.90
4518;DHT22;2271;49.464;11.070;2022-07-23T14:02:10;27.20;99.90
4518;DHT22;2271;49.464;11.070;2022-07-23T14:04:38;27.20;99.90
4518;DHT22;2271;49.464;11.070;2022-07-23T14:07:04;27.20;99.90
4518;DHT22;2271;49.464;11.070;2022-07-23T14:09:30;27.20;99.90
4518;DHT22;2271;49.464;11.070;2022-07-23T14:11:59;27.40;99.90
4518;DHT22;2271;49.464;11.070;2022-07-23T14:14:25;27.50;99.90
4518;DHT22;2271;49.464;11.070;2022-07-23T14:16:50;27.40;99.90
4518;DHT22;2271;49.464;11.070;2022-07-23T14:19:16;27.50;99.90
4518;DHT22;2271;49.464;11.070;2022-07-23T14:21:42;27.50;99.90
4518;DHT22;2271;49.464;11.070;2022-07-23T14:24:08;27.50;99.90
4518;DHT22;2271;49.464;11.070;2022-07-23T14:26:34;27.50;99.90
4518;DHT22;2271;49.464;11.070;2022-07-23T14:29:00;27.50;99.90
4518;DHT22;2271;49.464;11.070;2022-07-23T14:31:26;27.50;99.90
4518;DHT22;2271;49.464;11.070;2022-07-23T14:33:51;27.40;99.90
4518;DHT22;2271;49.464;11.070;2022-07-23T14:36:17;27.40;99.90
4518;DHT22;2271;49.464;11.070;2022-07-23T14:38:43;27.40;99.90
4518;DHT22;2271;49.464;11.070;2022-07-23T14:41:09;27.30;99.90
4518;DHT22;2271;49.464;11.070;2022-07-23T14:43:35;27.20;99.90
4518;DHT22;2271;49.464;11.070;2022-07-23T14:46:00;27.20;99.90
4518;DHT22;2271;49.464;11.070;2022-07-23T14:48:26;27.20;99.90
4518;DHT22;2271;49.464;11.070;2022-07-23T14:50:52;27.30;99.90
4518;DHT22;2271;49.464;11.070;2022-07-23T14:53:18;27.50;99.90
4518;DHT22;2271;49.464;11.070;2022-07-23T14:55:43;27.50;99.90
4518;DHT22;2271;49.464;11.070;2022-07-23T14:58:09;27.60;99.90
4518;DHT22;2271;49.464;11.070;2022-07-23T15:00:35;27.60;99.90
4518;DHT22;2271;49.464;11.070;2022-07-23T15:03:00;27.50;99.90
4518;DHT22;2271;49.464;11.070;2022-07-23T15:05:26;27.40;99.90
4518;DHT22;2271;49.464;11.070;2022-07-23T15:07:53;27.40;99.90
4518;DHT22;2271;49.464;11.070;2022-07-23T15:10:19;27.40;99.90
4518;DHT22;2271;49.464;11.070;2022-07-23T15:12:44;27.30;99.90
4518;DHT22;2271;49.464;11.070;2022-07-23T15:15:10;27.30;99.90
4518;DHT22;2271;49.464;11.070;2022-07-23T15:17:36;27.40;99.90
4518;DHT22;2271;49.464;11.070;2022-07-23T15:20:02;27.40;99.90
4518;DHT22;2271;49.464;11.070;2022-07-23T15:22:28;27.30;99.90
4518;DHT22;2271;49.464;11.070;2022-07-23T15:24:54;27.20;99.90
4518;DHT22;2271;49.464;11.070;2022-07-23T15:27:19;27.20;99.90
4518;DHT22;2271;49.464;11.070;2022-07-23T15:29:45;27.30;99.90
4518;DHT22;2271;49.464;11.070;2022-07-23T15:32:11;27.30;99.90
4518;DHT22;2271;49.464;11.070;2022-07-23T15:34:38;27.30;99.90
4518;DHT22;2271;49.464;11.070;2022-07-23T15:37:04;27.30;99.90
4518;DHT22;2271;49.464;11.070;2022-07-23T15:39:31;27.40;99.90
4518;DHT22;2271;49.464;11.070;2022-07-23T15:41:59;27.50;99.90
4518;DHT22;2271;49.464;11.070;2022-07-23T15:44:25;27.60;99.90
4518;DHT22;2271;49.464;11.070;2022-07-23T15:46:51;27.60;99.90
4518;DHT22;2271;49.464;11.070;2022-07-23T15:49:16;27.70;99.90
4518;DHT22;2271;49.464;11.070;2022-07-23T15:51:42;27.70;99.90
4518;DHT22;2271;49.464;11.070;2022-07-23T15:54:08;27.70;99.90
4518;DHT22;2271;49.464;11.070;2022-07-23T15:56:34;27.70;99.90
4518;DHT22;2271;49.464;11.070;2022-07-23T15:59:00;27.60;99.90
4518;DHT22;2271;49.464;11.070;2022-07-23T16:01:26;27.60;99.90
4518;DHT22;2271;49.464;11.070;2022-07-23T16:03:55;27.60;99.90
4518;DHT22;2271;49.464;11.070;2022-07-23T16:06:20;27.50;99.90
4518;DHT22;2271;49.464;11.070;2022-07-23T16:08:46;27.50;99.90
4518;DHT22;2271;49.464;11.070;2022-07-23T16:11:12;27.40;99.90
4518;DHT22;2271;49.464;11.070;2022-07-23T16:13:38;27.40;99.90
4518;DHT22;2271;49.464;11.070;2022-07-23T16:16:04;27.30;99.90
4518;DHT22;2271;49.464;11.070;2022-07-23T16:18:29;27.20;99.90
4518;DHT22;2271;49.464;11.070;2022-07-23T16:20:56;27.10;99.90
4518;DHT22;2271;49.464;11.070;2022-07-23T16:23:21;27.00;99.90
4518;DHT22;2271;49.464;11.070;2022-07-23T16:25:47;27.10;99.90